Swartz, Louisiana
Current Conditions -  °F | °C
As of 9:53 PM on Wednesday 22 Oct 2014 (Local Time) from KMLU Reporting Station
Clear Clear  
Wind Chill: 55°   Ceiling: Unl
Heat Index: 55°   Visibility: 10mi
Dew Point: 48°   Wind: 5mph
Humidity: 77%   Direction: 40°NE
Pressure: 30.16"   Gusts: NA
Location:  32.57°N, 91.99°W
Report Text: KMLU 230253Z AUTO 04004KT 10SM CLR 13/09 A3016 RMK AO2 SLP211 T01280089 52014
Loading
Personal Weather Stations






























Interactive Weather Map
Tropical Storm Tracking
New forecast layout! Learn more

10-Day Weather Forecast

Advertisements
Track Severe Weather on mobile